sensor_id;sensor_type;location;lat;lon;timestamp;temperature;humidity
33865;DHT22;20159;51.072;13.526;2023-03-18T00:00:29;9.40;54.70
33865;DHT22;20159;51.072;13.526;2023-03-18T00:02:55;9.40;55.00
33865;DHT22;20159;51.072;13.526;2023-03-18T00:05:20;9.40;55.30
33865;DHT22;20159;51.072;13.526;2023-03-18T00:07:46;9.30;55.00
33865;DHT22;20159;51.072;13.526;2023-03-18T00:10:12;9.30;55.00
33865;DHT22;20159;51.072;13.526;2023-03-18T00:12:39;9.30;55.10
33865;DHT22;20159;51.072;13.526;2023-03-18T00:15:06;9.20;55.10
33865;DHT22;20159;51.072;13.526;2023-03-18T00:17:32;9.20;55.40
33865;DHT22;20159;51.072;13.526;2023-03-18T00:19:58;9.20;55.40
33865;DHT22;20159;51.072;13.526;2023-03-18T00:22:31;9.10;55.50
33865;DHT22;20159;51.072;13.526;2023-03-18T00:24:56;9.10;55.50
33865;DHT22;20159;51.072;13.526;2023-03-18T00:27:22;9.10;55.70
33865;DHT22;20159;51.072;13.526;2023-03-18T00:29:48;9.00;55.30
33865;DHT22;20159;51.072;13.526;2023-03-18T00:32:13;9.00;55.40
33865;DHT22;20159;51.072;13.526;2023-03-18T00:34:40;9.20;56.10
33865;DHT22;20159;51.072;13.526;2023-03-18T00:37:06;9.00;55.70
33865;DHT22;20159;51.072;13.526;2023-03-18T00:39:32;9.00;55.60
33865;DHT22;20159;51.072;13.526;2023-03-18T00:41:58;9.00;55.80
33865;DHT22;20159;51.072;13.526;2023-03-18T00:44:26;9.10;55.70
33865;DHT22;20159;51.072;13.526;2023-03-18T00:46:52;9.10;55.70
33865;DHT22;20159;51.072;13.526;2023-03-18T00:49:17;9.10;55.90
33865;DHT22;20159;51.072;13.526;2023-03-18T00:51:44;9.10;56.50
33865;DHT22;20159;51.072;13.526;2023-03-18T00:54:12;9.10;55.60
33865;DHT22;20159;51.072;13.526;2023-03-18T00:56:38;9.10;55.60
33865;DHT22;20159;51.072;13.526;2023-03-18T00:59:04;9.20;55.40
33865;DHT22;20159;51.072;13.526;2023-03-18T01:01:31;9.20;55.20
33865;DHT22;20159;51.072;13.526;2023-03-18T01:03:56;9.20;55.00
33865;DHT22;20159;51.072;13.526;2023-03-18T01:06:25;9.10;54.80
33865;DHT22;20159;51.072;13.526;2023-03-18T01:08:50;9.20;54.80
33865;DHT22;20159;51.072;13.526;2023-03-18T01:11:17;9.30;55.30
33865;DHT22;20159;51.072;13.526;2023-03-18T01:13:42;8.80;54.80
33865;DHT22;20159;51.072;13.526;2023-03-18T01:16:09;9.20;54.90
33865;DHT22;20159;51.072;13.526;2023-03-18T01:18:35;9.20;55.10
33865;DHT22;20159;51.072;13.526;2023-03-18T01:21:01;9.20;55.20
33865;DHT22;20159;51.072;13.526;2023-03-18T01:23:27;9.10;55.40
33865;DHT22;20159;51.072;13.526;2023-03-18T01:25:54;9.10;55.30
33865;DHT22;20159;51.072;13.526;2023-03-18T01:28:23;9.10;55.40
33865;DHT22;20159;51.072;13.526;2023-03-18T01:30:49;9.10;55.70
33865;DHT22;20159;51.072;13.526;2023-03-18T01:33:15;9.10;55.50
33865;DHT22;20159;51.072;13.526;2023-03-18T01:35:42;9.10;55.70
33865;DHT22;20159;51.072;13.526;2023-03-18T01:38:07;9.00;55.30
33865;DHT22;20159;51.072;13.526;2023-03-18T01:40:35;9.00;55.80
33865;DHT22;20159;51.072;13.526;2023-03-18T01:43:17;9.00;55.70
33865;DHT22;20159;51.072;13.526;2023-03-18T01:45:51;9.00;55.50
33865;DHT22;20159;51.072;13.526;2023-03-18T01:48:20;8.90;55.70
33865;DHT22;20159;51.072;13.526;2023-03-18T01:50:49;8.90;55.70
33865;DHT22;20159;51.072;13.526;2023-03-18T01:53:17;8.90;55.60
33865;DHT22;20159;51.072;13.526;2023-03-18T01:55:45;8.90;55.70
33865;DHT22;20159;51.072;13.526;2023-03-18T01:58:23;8.80;55.70
33865;DHT22;20159;51.072;13.526;2023-03-18T02:00:53;8.80;55.60
33865;DHT22;20159;51.072;13.526;2023-03-18T02:03:20;7.20;55.30
33865;DHT22;20159;51.072;13.526;2023-03-18T02:05:48;8.80;55.80
33865;DHT22;20159;51.072;13.526;2023-03-18T02:08:15;8.70;56.20
33865;DHT22;20159;51.072;13.526;2023-03-18T02:10:40;8.70;56.60
33865;DHT22;20159;51.072;13.526;2023-03-18T02:13:08;8.70;56.60
33865;DHT22;20159;51.072;13.526;2023-03-18T02:15:39;8.60;56.10
33865;DHT22;20159;51.072;13.526;2023-03-18T02:18:11;8.60;56.80
33865;DHT22;20159;51.072;13.526;2023-03-18T02:23:44;8.60;57.00
33865;DHT22;20159;51.072;13.526;2023-03-18T02:26:31;8.50;57.30
33865;DHT22;20159;51.072;13.526;2023-03-18T02:29:01;8.50;56.80
33865;DHT22;20159;51.072;13.526;2023-03-18T02:31:30;8.50;57.20
33865;DHT22;20159;51.072;13.526;2023-03-18T02:33:57;8.50;57.50
33865;DHT22;20159;51.072;13.526;2023-03-18T02:36:26;8.40;57.50
33865;DHT22;20159;51.072;13.526;2023-03-18T02:38:53;8.40;57.80
33865;DHT22;20159;51.072;13.526;2023-03-18T02:41:21;9.50;59.00
33865;DHT22;20159;51.072;13.526;2023-03-18T02:43:49;8.40;58.50
33865;DHT22;20159;51.072;13.526;2023-03-18T02:48:55;8.30;58.50
33865;DHT22;20159;51.072;13.526;2023-03-18T02:51:22;8.20;58.10
33865;DHT22;20159;51.072;13.526;2023-03-18T02:53:47;8.20;58.10
33865;DHT22;20159;51.072;13.526;2023-03-18T02:56:13;8.20;58.70
33865;DHT22;20159;51.072;13.526;2023-03-18T02:58:40;8.20;58.20
33865;DHT22;20159;51.072;13.526;2023-03-18T03:01:06;8.20;58.80
33865;DHT22;20159;51.072;13.526;2023-03-18T03:03:33;8.20;58.90
33865;DHT22;20159;51.072;13.526;2023-03-18T03:05:59;8.20;58.80
33865;DHT22;20159;51.072;13.526;2023-03-18T03:08:26;8.20;59.20
33865;DHT22;20159;51.072;13.526;2023-03-18T03:10:51;8.10;59.10
33865;DHT22;20159;51.072;13.526;2023-03-18T03:13:18;8.10;59.10
33865;DHT22;20159;51.072;13.526;2023-03-18T03:15:44;8.10;59.60
33865;DHT22;20159;51.072;13.526;2023-03-18T03:18:09;8.10;59.70
33865;DHT22;20159;51.072;13.526;2023-03-18T03:20:35;8.10;59.70
33865;DHT22;20159;51.072;13.526;2023-03-18T03:23:05;8.10;59.90
33865;DHT22;20159;51.072;13.526;2023-03-18T03:25:30;8.10;59.70
33865;DHT22;20159;51.072;13.526;2023-03-18T03:27:57;8.10;59.30
33865;DHT22;20159;51.072;13.526;2023-03-18T03:30:22;8.10;59.60
33865;DHT22;20159;51.072;13.526;2023-03-18T03:32:48;8.10;59.70
33865;DHT22;20159;51.072;13.526;2023-03-18T03:35:16;8.10;59.60
33865;DHT22;20159;51.072;13.526;2023-03-18T03:37:42;8.10;59.70
33865;DHT22;20159;51.072;13.526;2023-03-18T03:40:13;8.10;59.60
33865;DHT22;20159;51.072;13.526;2023-03-18T03:42:40;8.10;60.10
33865;DHT22;20159;51.072;13.526;2023-03-18T03:45:06;8.10;59.90
33865;DHT22;20159;51.072;13.526;2023-03-18T03:47:32;8.10;59.70
33865;DHT22;20159;51.072;13.526;2023-03-18T03:49:58;8.10;59.50
33865;DHT22;20159;51.072;13.526;2023-03-18T03:52:23;8.10;59.60
33865;DHT22;20159;51.072;13.526;2023-03-18T03:54:49;8.10;60.00
33865;DHT22;20159;51.072;13.526;2023-03-18T03:57:16;8.00;60.40
33865;DHT22;20159;51.072;13.526;2023-03-18T03:59:41;8.00;60.20
33865;DHT22;20159;51.072;13.526;2023-03-18T04:02:07;9.90;61.10
33865;DHT22;20159;51.072;13.526;2023-03-18T04:04:33;8.00;60.40
33865;DHT22;20159;51.072;13.526;2023-03-18T04:06:59;7.90;60.70
33865;DHT22;20159;51.072;13.526;2023-03-18T04:09:25;7.90;60.80
33865;DHT22;20159;51.072;13.526;2023-03-18T04:11:50;7.80;60.90
33865;DHT22;20159;51.072;13.526;2023-03-18T04:14:19;7.80;61.30
33865;DHT22;20159;51.072;13.526;2023-03-18T04:16:44;7.80;61.40
33865;DHT22;20159;51.072;13.526;2023-03-18T04:19:10;7.70;61.70
33865;DHT22;20159;51.072;13.526;2023-03-18T04:21:36;7.70;62.00
33865;DHT22;20159;51.072;13.526;2023-03-18T04:24:02;7.60;62.20
33865;DHT22;20159;51.072;13.526;2023-03-18T04:26:29;7.50;62.40
33865;DHT22;20159;51.072;13.526;2023-03-18T04:28:58;7.50;62.80
33865;DHT22;20159;51.072;13.526;2023-03-18T04:31:23;7.40;62.70
33865;DHT22;20159;51.072;13.526;2023-03-18T04:33:49;7.40;62.20
33865;DHT22;20159;51.072;13.526;2023-03-18T04:36:14;7.30;62.10
33865;DHT22;20159;51.072;13.526;2023-03-18T04:38:40;7.30;62.00
33865;DHT22;20159;51.072;13.526;2023-03-18T04:41:06;7.20;61.90
33865;DHT22;20159;51.072;13.526;2023-03-18T04:43:31;7.20;62.10
33865;DHT22;20159;51.072;13.526;2023-03-18T04:45:57;7.20;62.00
33865;DHT22;20159;51.072;13.526;2023-03-18T04:48:22;7.10;62.70
33865;DHT22;20159;51.072;13.526;2023-03-18T04:50:48;7.10;62.00
33865;DHT22;20159;51.072;13.526;2023-03-18T04:53:14;7.10;62.30
33865;DHT22;20159;51.072;13.526;2023-03-18T04:55:40;7.10;62.30
33865;DHT22;20159;51.072;13.526;2023-03-18T04:58:05;7.10;62.40
33865;DHT22;20159;51.072;13.526;2023-03-18T05:00:31;7.10;62.60
33865;DHT22;20159;51.072;13.526;2023-03-18T05:02:56;7.10;62.60
33865;DHT22;20159;51.072;13.526;2023-03-18T05:05:22;7.10;62.40
33865;DHT22;20159;51.072;13.526;2023-03-18T05:07:48;7.00;62.10
33865;DHT22;20159;51.072;13.526;2023-03-18T05:10:13;7.10;62.40
33865;DHT22;20159;51.072;13.526;2023-03-18T05:12:39;7.00;62.30
33865;DHT22;20159;51.072;13.526;2023-03-18T05:15:05;7.00;62.30
33865;DHT22;20159;51.072;13.526;2023-03-18T05:17:31;7.00;62.10
33865;DHT22;20159;51.072;13.526;2023-03-18T05:19:56;7.00;62.40
33865;DHT22;20159;51.072;13.526;2023-03-18T05:22:23;7.10;62.20
33865;DHT22;20159;51.072;13.526;2023-03-18T05:24:49;7.10;62.30
33865;DHT22;20159;51.072;13.526;2023-03-18T05:27:16;7.10;62.20
33865;DHT22;20159;51.072;13.526;2023-03-18T05:29:43;7.10;62.20
33865;DHT22;20159;51.072;13.526;2023-03-18T05:32:10;7.10;62.10
33865;DHT22;20159;51.072;13.526;2023-03-18T05:34:38;7.10;62.30
33865;DHT22;20159;51.072;13.526;2023-03-18T05:37:05;7.20;62.30
33865;DHT22;20159;51.072;13.526;2023-03-18T05:39:32;7.20;62.20
33865;DHT22;20159;51.072;13.526;2023-03-18T05:41:58;7.20;62.40
33865;DHT22;20159;51.072;13.526;2023-03-18T05:44:24;7.20;62.60
33865;DHT22;20159;51.072;13.526;2023-03-18T05:46:50;7.20;62.80
33865;DHT22;20159;51.072;13.526;2023-03-18T05:49:17;7.20;63.10
33865;DHT22;20159;51.072;13.526;2023-03-18T05:51:43;7.30;63.40
33865;DHT22;20159;51.072;13.526;2023-03-18T05:54:09;7.30;63.10
33865;DHT22;20159;51.072;13.526;2023-03-18T05:56:35;7.30;63.10
33865;DHT22;20159;51.072;13.526;2023-03-18T05:59:00;7.30;63.00
33865;DHT22;20159;51.072;13.526;2023-03-18T06:01:26;7.30;63.30
33865;DHT22;20159;51.072;13.526;2023-03-18T06:03:53;7.40;63.20
33865;DHT22;20159;51.072;13.526;2023-03-18T06:06:19;7.40;63.20
33865;DHT22;20159;51.072;13.526;2023-03-18T06:08:44;7.50;63.70
33865;DHT22;20159;51.072;13.526;2023-03-18T06:11:11;7.60;63.70
33865;DHT22;20159;51.072;13.526;2023-03-18T06:13:37;7.70;63.60
33865;DHT22;20159;51.072;13.526;2023-03-18T06:16:03;7.90;63.50
33865;DHT22;20159;51.072;13.526;2023-03-18T06:18:29;7.90;63.00
33865;DHT22;20159;51.072;13.526;2023-03-18T06:20:55;8.10;63.10
33865;DHT22;20159;51.072;13.526;2023-03-18T06:23:21;8.20;63.00
33865;DHT22;20159;51.072;13.526;2023-03-18T06:25:47;8.30;62.70
33865;DHT22;20159;51.072;13.526;2023-03-18T06:28:14;8.50;62.20
33865;DHT22;20159;51.072;13.526;2023-03-18T06:30:40;8.60;61.90
33865;DHT22;20159;51.072;13.526;2023-03-18T06:33:06;8.80;62.00
33865;DHT22;20159;51.072;13.526;2023-03-18T06:35:32;9.00;61.60
33865;DHT22;20159;51.072;13.526;2023-03-18T06:37:58;8.60;60.80
33865;DHT22;20159;51.072;13.526;2023-03-18T06:40:24;9.30;61.30
33865;DHT22;20159;51.072;13.526;2023-03-18T06:42:50;9.60;61.70
33865;DHT22;20159;51.072;13.526;2023-03-18T06:45:16;9.80;61.50
33865;DHT22;20159;51.072;13.526;2023-03-18T06:47:42;10.00;60.90
33865;DHT22;20159;51.072;13.526;2023-03-18T06:50:09;10.30;62.00
33865;DHT22;20159;51.072;13.526;2023-03-18T06:52:40;10.60;61.20
33865;DHT22;20159;51.072;13.526;2023-03-18T06:55:06;11.00;60.90
33865;DHT22;20159;51.072;13.526;2023-03-18T06:57:31;11.30;60.70
33865;DHT22;20159;51.072;13.526;2023-03-18T06:59:58;11.60;60.30
33865;DHT22;20159;51.072;13.526;2023-03-18T07:02:24;12.00;60.20
33865;DHT22;20159;51.072;13.526;2023-03-18T07:04:54;12.40;58.70
33865;DHT22;20159;51.072;13.526;2023-03-18T07:07:20;12.90;58.40
33865;DHT22;20159;51.072;13.526;2023-03-18T07:09:49;13.30;58.10
33865;DHT22;20159;51.072;13.526;2023-03-18T07:12:15;13.70;58.10
33865;DHT22;20159;51.072;13.526;2023-03-18T07:14:41;14.10;56.80
33865;DHT22;20159;51.072;13.526;2023-03-18T07:17:06;14.40;56.20
33865;DHT22;20159;51.072;13.526;2023-03-18T07:19:32;14.80;56.00
33865;DHT22;20159;51.072;13.526;2023-03-18T07:21:58;15.10;55.10
33865;DHT22;20159;51.072;13.526;2023-03-18T07:24:24;15.50;54.30
33865;DHT22;20159;51.072;13.526;2023-03-18T07:26:50;15.80;53.60
33865;DHT22;20159;51.072;13.526;2023-03-18T07:29:17;15.60;53.00
33865;DHT22;20159;51.072;13.526;2023-03-18T07:31:42;16.40;52.90
33865;DHT22;20159;51.072;13.526;2023-03-18T07:34:08;16.60;52.10
33865;DHT22;20159;51.072;13.526;2023-03-18T07:36:34;16.90;52.10
33865;DHT22;20159;51.072;13.526;2023-03-18T07:39:02;17.10;51.50
33865;DHT22;20159;51.072;13.526;2023-03-18T07:41:28;17.30;50.10
33865;DHT22;20159;51.072;13.526;2023-03-18T07:43:54;17.40;49.60
33865;DHT22;20159;51.072;13.526;2023-03-18T07:46:19;17.50;48.50
33865;DHT22;20159;51.072;13.526;2023-03-18T07:48:45;17.50;48.10
33865;DHT22;20159;51.072;13.526;2023-03-18T07:51:11;17.50;48.10
33865;DHT22;20159;51.072;13.526;2023-03-18T07:53:36;17.40;48.40
33865;DHT22;20159;51.072;13.526;2023-03-18T07:56:02;17.40;47.80
33865;DHT22;20159;51.072;13.526;2023-03-18T07:58:28;17.40;47.90
33865;DHT22;20159;51.072;13.526;2023-03-18T08:00:53;17.30;48.10
33865;DHT22;20159;51.072;13.526;2023-03-18T08:03:19;17.40;48.30
33865;DHT22;20159;51.072;13.526;2023-03-18T08:05:45;17.40;47.70
33865;DHT22;20159;51.072;13.526;2023-03-18T08:08:10;17.40;48.20
33865;DHT22;20159;51.072;13.526;2023-03-18T08:10:36;17.50;48.00
33865;DHT22;20159;51.072;13.526;2023-03-18T08:13:02;17.60;48.10
33865;DHT22;20159;51.072;13.526;2023-03-18T08:15:28;17.70;48.20
33865;DHT22;20159;51.072;13.526;2023-03-18T08:17:54;17.80;48.30
33865;DHT22;20159;51.072;13.526;2023-03-18T08:20:20;18.00;48.20
33865;DHT22;20159;51.072;13.526;2023-03-18T08:22:46;18.20;48.30
33865;DHT22;20159;51.072;13.526;2023-03-18T08:25:11;18.40;47.80
33865;DHT22;20159;51.072;13.526;2023-03-18T08:27:37;18.70;48.00
33865;DHT22;20159;51.072;13.526;2023-03-18T08:30:03;19.00;48.70
33865;DHT22;20159;51.072;13.526;2023-03-18T08:32:29;19.40;48.30
33865;DHT22;20159;51.072;13.526;2023-03-18T08:34:55;19.70;48.30
33865;DHT22;20159;51.072;13.526;2023-03-18T08:37:21;20.00;47.30
33865;DHT22;20159;51.072;13.526;2023-03-18T08:39:46;20.40;46.30
33865;DHT22;20159;51.072;13.526;2023-03-18T08:42:12;20.70;45.60
33865;DHT22;20159;51.072;13.526;2023-03-18T08:44:37;20.90;45.50
33865;DHT22;20159;51.072;13.526;2023-03-18T08:47:04;21.10;45.70
33865;DHT22;20159;51.072;13.526;2023-03-18T08:49:30;21.40;45.00
33865;DHT22;20159;51.072;13.526;2023-03-18T08:51:56;21.70;45.50
33865;DHT22;20159;51.072;13.526;2023-03-18T08:54:22;22.00;45.20
33865;DHT22;20159;51.072;13.526;2023-03-18T08:56:47;22.30;44.50
33865;DHT22;20159;51.072;13.526;2023-03-18T08:59:13;22.60;44.90
33865;DHT22;20159;51.072;13.526;2023-03-18T09:01:38;23.00;44.30
33865;DHT22;20159;51.072;13.526;2023-03-18T09:04:04;23.30;42.90
33865;DHT22;20159;51.072;13.526;2023-03-18T09:06:30;23.60;42.30
33865;DHT22;20159;51.072;13.526;2023-03-18T09:08:57;23.90;42.00
33865;DHT22;20159;51.072;13.526;2023-03-18T09:11:23;24.10;42.40
33865;DHT22;20159;51.072;13.526;2023-03-18T09:13:49;24.30;41.80
33865;DHT22;20159;51.072;13.526;2023-03-18T09:16:14;24.50;41.30
33865;DHT22;20159;51.072;13.526;2023-03-18T09:18:40;24.70;41.10
33865;DHT22;20159;51.072;13.526;2023-03-18T09:21:06;24.80;41.10
33865;DHT22;20159;51.072;13.526;2023-03-18T09:23:32;25.00;40.40
33865;DHT22;20159;51.072;13.526;2023-03-18T09:25:58;25.00;39.90
33865;DHT22;20159;51.072;13.526;2023-03-18T09:28:24;25.00;40.20
33865;DHT22;20159;51.072;13.526;2023-03-18T09:30:50;25.10;40.10
33865;DHT22;20159;51.072;13.526;2023-03-18T09:33:17;25.10;39.00
33865;DHT22;20159;51.072;13.526;2023-03-18T09:35:42;25.20;39.50
33865;DHT22;20159;51.072;13.526;2023-03-18T09:38:14;25.20;40.40
33865;DHT22;20159;51.072;13.526;2023-03-18T09:46:34;25.40;39.70
33865;DHT22;20159;51.072;13.526;2023-03-18T09:52:15;25.40;38.50
33865;DHT22;20159;51.072;13.526;2023-03-18T09:55:20;25.30;39.40
33865;DHT22;20159;51.072;13.526;2023-03-18T09:57:50;25.20;39.50
33865;DHT22;20159;51.072;13.526;2023-03-18T10:00:26;25.20;40.10
33865;DHT22;20159;51.072;13.526;2023-03-18T10:05:39;25.00;39.40
33865;DHT22;20159;51.072;13.526;2023-03-18T10:08:37;24.90;39.70
33865;DHT22;20159;51.072;13.526;2023-03-18T10:11:20;24.80;38.60
33865;DHT22;20159;51.072;13.526;2023-03-18T10:16:26;24.60;38.60
33865;DHT22;20159;51.072;13.526;2023-03-18T10:18:53;24.50;38.90
33865;DHT22;20159;51.072;13.526;2023-03-18T10:21:34;24.40;39.60
33865;DHT22;20159;51.072;13.526;2023-03-18T10:24:25;24.40;38.90
33865;DHT22;20159;51.072;13.526;2023-03-18T10:29:30;24.30;39.70
33865;DHT22;20159;51.072;13.526;2023-03-18T10:35:07;24.20;38.20
33865;DHT22;20159;51.072;13.526;2023-03-18T10:38:02;24.10;39.30
33865;DHT22;20159;51.072;13.526;2023-03-18T10:40:34;24.00;39.00
33865;DHT22;20159;51.072;13.526;2023-03-18T10:43:02;23.80;39.10
33865;DHT22;20159;51.072;13.526;2023-03-18T10:45:30;23.80;40.30
33865;DHT22;20159;51.072;13.526;2023-03-18T10:48:58;23.60;39.40
33865;DHT22;20159;51.072;13.526;2023-03-18T10:53:56;23.50;39.20
33865;DHT22;20159;51.072;13.526;2023-03-18T10:56:23;23.40;39.60
33865;DHT22;20159;51.072;13.526;2023-03-18T10:58:49;23.40;39.10
33865;DHT22;20159;51.072;13.526;2023-03-18T11:01:17;23.30;39.00
33865;DHT22;20159;51.072;13.526;2023-03-18T11:03:51;23.20;39.30
33865;DHT22;20159;51.072;13.526;2023-03-18T11:06:22;23.10;38.90
33865;DHT22;20159;51.072;13.526;2023-03-18T11:08:59;23.00;39.10
33865;DHT22;20159;51.072;13.526;2023-03-18T11:11:28;22.90;39.20
33865;DHT22;20159;51.072;13.526;2023-03-18T11:13:57;22.80;39.20
33865;DHT22;20159;51.072;13.526;2023-03-18T11:16:40;22.80;39.00
33865;DHT22;20159;51.072;13.526;2023-03-18T11:19:31;22.70;39.00
33865;DHT22;20159;51.072;13.526;2023-03-18T11:22:11;22.70;39.30
33865;DHT22;20159;51.072;13.526;2023-03-18T11:24:39;22.60;38.80
33865;DHT22;20159;51.072;13.526;2023-03-18T11:29:54;22.50;39.20
33865;DHT22;20159;51.072;13.526;2023-03-18T11:34:57;22.40;39.00
33865;DHT22;20159;51.072;13.526;2023-03-18T11:37:33;22.40;39.50
33865;DHT22;20159;51.072;13.526;2023-03-18T11:42:41;22.40;39.70
33865;DHT22;20159;51.072;13.526;2023-03-18T11:47:50;22.40;39.70
33865;DHT22;20159;51.072;13.526;2023-03-18T11:50:20;22.40;39.90
33865;DHT22;20159;51.072;13.526;2023-03-18T11:53:12;22.40;39.20
33865;DHT22;20159;51.072;13.526;2023-03-18T11:58:41;22.40;39.60
33865;DHT22;20159;51.072;13.526;2023-03-18T12:01:12;22.40;40.20
33865;DHT22;20159;51.072;13.526;2023-03-18T12:04:01;22.50;40.80
33865;DHT22;20159;51.072;13.526;2023-03-18T12:06:32;22.40;39.50
33865;DHT22;20159;51.072;13.526;2023-03-18T12:09:40;22.50;39.50
33865;DHT22;20159;51.072;13.526;2023-03-18T12:12:45;22.50;39.80
33865;DHT22;20159;51.072;13.526;2023-03-18T12:15:35;22.40;39.80
33865;DHT22;20159;51.072;13.526;2023-03-18T12:18:45;22.40;40.50
33865;DHT22;20159;51.072;13.526;2023-03-18T12:21:35;22.30;40.70
33865;DHT22;20159;51.072;13.526;2023-03-18T12:29:56;22.40;40.30
33865;DHT22;20159;51.072;13.526;2023-03-18T12:32:32;22.40;40.40
33865;DHT22;20159;51.072;13.526;2023-03-18T12:40:41;22.50;39.70
33865;DHT22;20159;51.072;13.526;2023-03-18T12:43:40;22.60;39.10
33865;DHT22;20159;51.072;13.526;2023-03-18T12:46:28;22.50;39.40
33865;DHT22;20159;51.072;13.526;2023-03-18T12:49:17;22.50;39.70
33865;DHT22;20159;51.072;13.526;2023-03-18T12:51:58;22.50;39.30
33865;DHT22;20159;51.072;13.526;2023-03-18T12:54:28;22.40;39.50
33865;DHT22;20159;51.072;13.526;2023-03-18T12:57:00;22.40;39.70
33865;DHT22;20159;51.072;13.526;2023-03-18T12:59:40;22.40;40.20
33865;DHT22;20159;51.072;13.526;2023-03-18T13:04:44;22.30;39.10
33865;DHT22;20159;51.072;13.526;2023-03-18T13:07:19;22.40;40.30
33865;DHT22;20159;51.072;13.526;2023-03-18T13:09:53;22.30;40.10
33865;DHT22;20159;51.072;13.526;2023-03-18T13:12:39;22.80;39.80
33865;DHT22;20159;51.072;13.526;2023-03-18T13:18:04;22.20;39.80
33865;DHT22;20159;51.072;13.526;2023-03-18T13:20:38;22.10;40.80
33865;DHT22;20159;51.072;13.526;2023-03-18T13:26:18;22.10;40.10
33865;DHT22;20159;51.072;13.526;2023-03-18T13:32:00;22.10;40.60
33865;DHT22;20159;51.072;13.526;2023-03-18T13:34:48;22.10;40.10
33865;DHT22;20159;51.072;13.526;2023-03-18T13:42:56;22.20;40.60
33865;DHT22;20159;51.072;13.526;2023-03-18T13:45:31;22.20;40.70
33865;DHT22;20159;51.072;13.526;2023-03-18T13:48:05;22.40;40.60
33865;DHT22;20159;51.072;13.526;2023-03-18T13:50:34;22.40;40.90
33865;DHT22;20159;51.072;13.526;2023-03-18T13:53:02;22.40;40.70
33865;DHT22;20159;51.072;13.526;2023-03-18T14:00:39;22.70;41.00
33865;DHT22;20159;51.072;13.526;2023-03-18T14:03:19;22.80;40.80
33865;DHT22;20159;51.072;13.526;2023-03-18T14:06:37;22.80;40.10
33865;DHT22;20159;51.072;13.526;2023-03-18T14:14:04;23.00;39.80
33865;DHT22;20159;51.072;13.526;2023-03-18T14:19:18;23.00;40.20
33865;DHT22;20159;51.072;13.526;2023-03-18T14:21:50;22.90;39.10
33865;DHT22;20159;51.072;13.526;2023-03-18T14:26:47;22.80;39.60
33865;DHT22;20159;51.072;13.526;2023-03-18T14:32:02;22.70;39.70
33865;DHT22;20159;51.072;13.526;2023-03-18T14:34:33;22.60;39.60
33865;DHT22;20159;51.072;13.526;2023-03-18T14:37:32;22.50;39.60
33865;DHT22;20159;51.072;13.526;2023-03-18T14:40:18;22.50;39.90
33865;DHT22;20159;51.072;13.526;2023-03-18T14:42:50;23.00;40.60
33865;DHT22;20159;51.072;13.526;2023-03-18T14:45:23;22.40;40.60
33865;DHT22;20159;51.072;13.526;2023-03-18T14:47:54;22.40;40.00
33865;DHT22;20159;51.072;13.526;2023-03-18T14:50:41;22.30;40.20
33865;DHT22;20159;51.072;13.526;2023-03-18T14:55:34;22.20;40.20
33865;DHT22;20159;51.072;13.526;2023-03-18T14:58:00;22.20;40.30
33865;DHT22;20159;51.072;13.526;2023-03-18T15:00:34;22.20;40.60
33865;DHT22;20159;51.072;13.526;2023-03-18T15:03:06;22.10;39.90
33865;DHT22;20159;51.072;13.526;2023-03-18T15:05:38;22.00;40.20
33865;DHT22;20159;51.072;13.526;2023-03-18T15:08:12;22.00;39.80
33865;DHT22;20159;51.072;13.526;2023-03-18T15:10:39;21.90;40.60
33865;DHT22;20159;51.072;13.526;2023-03-18T15:13:12;21.90;40.50
33865;DHT22;20159;51.072;13.526;2023-03-18T15:15:38;21.80;40.30
33865;DHT22;20159;51.072;13.526;2023-03-18T15:18:24;21.70;40.90
33865;DHT22;20159;51.072;13.526;2023-03-18T15:20:59;21.70;40.20
33865;DHT22;20159;51.072;13.526;2023-03-18T15:23:34;21.60;41.00
33865;DHT22;20159;51.072;13.526;2023-03-18T15:26:02;21.50;40.60
33865;DHT22;20159;51.072;13.526;2023-03-18T15:28:31;21.50;41.30
33865;DHT22;20159;51.072;13.526;2023-03-18T15:30:59;21.50;41.40
33865;DHT22;20159;51.072;13.526;2023-03-18T15:33:33;21.50;41.40
33865;DHT22;20159;51.072;13.526;2023-03-18T15:36:04;21.50;41.30
33865;DHT22;20159;51.072;13.526;2023-03-18T15:38:30;21.50;41.60
33865;DHT22;20159;51.072;13.526;2023-03-18T15:41:07;21.40;41.40
33865;DHT22;20159;51.072;13.526;2023-03-18T15:46:24;21.40;41.60
33865;DHT22;20159;51.072;13.526;2023-03-18T15:48:53;21.30;41.40
33865;DHT22;20159;51.072;13.526;2023-03-18T15:51:32;21.30;41.40
33865;DHT22;20159;51.072;13.526;2023-03-18T15:54:05;21.20;41.20
33865;DHT22;20159;51.072;13.526;2023-03-18T15:56:33;21.10;41.40
33865;DHT22;20159;51.072;13.526;2023-03-18T15:59:06;21.00;41.10
33865;DHT22;20159;51.072;13.526;2023-03-18T16:01:33;20.90;41.60
33865;DHT22;20159;51.072;13.526;2023-03-18T16:04:00;20.70;41.70
33865;DHT22;20159;51.072;13.526;2023-03-18T16:06:25;20.60;42.00
33865;DHT22;20159;51.072;13.526;2023-03-18T16:08:51;20.50;42.10
33865;DHT22;20159;51.072;13.526;2023-03-18T16:11:17;20.30;41.90
33865;DHT22;20159;51.072;13.526;2023-03-18T16:13:43;20.20;41.80
33865;DHT22;20159;51.072;13.526;2023-03-18T16:16:16;20.10;42.20
33865;DHT22;20159;51.072;13.526;2023-03-18T16:18:43;20.00;42.20
33865;DHT22;20159;51.072;13.526;2023-03-18T16:21:11;20.00;42.10
33865;DHT22;20159;51.072;13.526;2023-03-18T16:23:37;19.90;42.20
33865;DHT22;20159;51.072;13.526;2023-03-18T16:26:10;19.90;42.50
33865;DHT22;20159;51.072;13.526;2023-03-18T16:28:37;19.80;42.30
33865;DHT22;20159;51.072;13.526;2023-03-18T16:31:03;19.80;42.70
33865;DHT22;20159;51.072;13.526;2023-03-18T16:33:29;19.70;42.60
33865;DHT22;20159;51.072;13.526;2023-03-18T16:35:59;19.50;42.50
33865;DHT22;20159;51.072;13.526;2023-03-18T16:38:26;19.40;42.50
33865;DHT22;20159;51.072;13.526;2023-03-18T16:40:52;19.30;42.50
33865;DHT22;20159;51.072;13.526;2023-03-18T16:43:22;19.10;42.80
33865;DHT22;20159;51.072;13.526;2023-03-18T16:45:49;18.90;43.00
33865;DHT22;20159;51.072;13.526;2023-03-18T16:48:17;18.70;43.20
33865;DHT22;20159;51.072;13.526;2023-03-18T16:50:44;18.50;43.50
33865;DHT22;20159;51.072;13.526;2023-03-18T16:55:47;18.00;44.30
33865;DHT22;20159;51.072;13.526;2023-03-18T16:58:16;17.80;44.40
33865;DHT22;20159;51.072;13.526;2023-03-18T17:00:43;17.60;44.70
33865;DHT22;20159;51.072;13.526;2023-03-18T17:03:12;17.40;45.00
33865;DHT22;20159;51.072;13.526;2023-03-18T17:05:38;17.20;45.20
33865;DHT22;20159;51.072;13.526;2023-03-18T17:08:04;16.90;45.50
33865;DHT22;20159;51.072;13.526;2023-03-18T17:10:29;16.70;45.80
33865;DHT22;20159;51.072;13.526;2023-03-18T17:12:58;16.50;46.10